createdAt,value
2022-10-27T00:00:59.283Z,101232.34
2022-10-27T00:03:26.061Z,101210.75
2022-10-27T00:05:55.072Z,101248.72
2022-10-27T00:08:24.323Z,101135.19
2022-10-27T00:10:58.483Z,101248.56
2022-10-27T00:13:25.634Z,101120.06
2022-10-27T00:15:59.469Z,101257.00
2022-10-27T00:18:30.988Z,101246.81
2022-10-27T00:20:59.755Z,101251.44
2022-10-27T00:23:26.482Z,101187.97
2022-10-27T00:26:01.038Z,101234.84
2022-10-27T00:28:31.397Z,101195.34
2022-10-27T00:31:06.259Z,101149.91
2022-10-27T00:33:35.252Z,101177.50
2022-10-27T00:36:12.275Z,101251.13
2022-10-27T00:38:42.481Z,101258.28
2022-10-27T00:41:24.373Z,101175.59
2022-10-27T00:43:53.764Z,101110.53
2022-10-27T00:46:20.256Z,101264.00
2022-10-27T00:48:49.732Z,101050.53
2022-10-27T00:51:19.739Z,101266.94
2022-10-27T00:53:49.740Z,101131.25
2022-10-27T00:56:19.355Z,101271.09
2022-10-27T00:58:46.365Z,101178.22
2022-10-27T01:01:15.768Z,101187.06
2022-10-27T01:03:43.666Z,101132.28
2022-10-27T01:06:15.357Z,101226.53
2022-10-27T01:08:42.521Z,101160.88
2022-10-27T01:11:14.364Z,101138.69
2022-10-27T01:13:41.071Z,101088.38
2022-10-27T01:16:28.780Z,101264.81
2022-10-27T01:19:17.218Z,101272.75
2022-10-27T01:24:58.672Z,101271.03
2022-10-27T01:27:45.833Z,101276.31
2022-10-27T01:30:18.436Z,101180.25
2022-10-27T01:33:08.265Z,101285.81
2022-10-27T01:35:50.074Z,101285.78
2022-10-27T01:38:26.964Z,101178.47
2022-10-27T01:40:57.632Z,101286.56
2022-10-27T01:43:28.199Z,101286.47
2022-10-27T01:45:56.126Z,101151.63
2022-10-27T01:48:25.567Z,101114.34
2022-10-27T01:51:07.290Z,101053.38
2022-10-27T01:53:39.512Z,101203.81
2022-10-27T01:56:06.129Z,101291.50
2022-10-27T01:59:09.103Z,101290.50
2022-10-27T02:01:44.951Z,101295.59
2022-10-27T02:04:29.781Z,101291.16
2022-10-27T02:07:12.520Z,101278.56
2022-10-27T02:09:44.226Z,101212.69
2022-10-27T02:12:21.673Z,101179.72
2022-10-27T02:14:54.253Z,101191.91
2022-10-27T02:17:25.820Z,101189.34
2022-10-27T02:19:54.893Z,101264.66
2022-10-27T02:22:27.102Z,101311.50
2022-10-27T02:24:59.119Z,101166.88
2022-10-27T02:27:33.594Z,101216.41
2022-10-27T02:30:03.856Z,101187.63
2022-10-27T02:32:33.326Z,101274.34
2022-10-27T02:35:00.553Z,101300.97
2022-10-27T02:37:37.673Z,101271.47
2022-10-27T02:40:04.932Z,101304.16
2022-10-27T02:42:31.652Z,101233.72
2022-10-27T02:45:00.650Z,101125.69
2022-10-27T02:47:27.348Z,101200.44
2022-10-27T02:49:54.058Z,101217.31
2022-10-27T02:52:23.365Z,101150.19
2022-10-27T02:54:49.975Z,101307.38
2022-10-27T02:57:17.899Z,101290.44
2022-10-27T02:59:49.716Z,101271.22
2022-10-27T03:02:23.655Z,101207.56
2022-10-27T03:04:53.602Z,101275.47
2022-10-27T03:07:20.615Z,101285.84
2022-10-27T03:09:54.568Z,101229.97
2022-10-27T03:12:21.264Z,101227.19
2022-10-27T03:14:47.933Z,101232.72
2022-10-27T03:17:17.057Z,101123.72
2022-10-27T03:19:46.167Z,101321.44
2022-10-27T03:22:12.939Z,101318.00
2022-10-27T03:24:39.629Z,101199.00
2022-10-27T03:27:06.301Z,101302.66
2022-10-27T03:29:33.007Z,101328.50
2022-10-27T03:32:02.245Z,101305.56
2022-10-27T03:34:29.010Z,101229.25
2022-10-27T03:36:55.733Z,101208.91
2022-10-27T03:39:22.427Z,101239.91
2022-10-27T03:41:49.264Z,101341.09
2022-10-27T03:44:15.922Z,101252.94
2022-10-27T03:46:47.464Z,101184.00
2022-10-27T03:49:14.780Z,101245.97
2022-10-27T03:51:46.492Z,101259.75
2022-10-27T03:54:13.414Z,101207.28
2022-10-27T03:56:42.439Z,101320.22
2022-10-27T03:59:09.810Z,101158.22
2022-10-27T04:01:37.414Z,101268.72
2022-10-27T04:04:04.742Z,101290.09
2022-10-27T04:06:34.930Z,101202.38
2022-10-27T04:09:01.935Z,101168.81
2022-10-27T04:11:28.916Z,101154.78
2022-10-27T04:13:56.087Z,101240.69
2022-10-27T04:16:23.084Z,101236.06
2022-10-27T04:18:50.482Z,101340.09
2022-10-27T04:21:17.685Z,101343.53
2022-10-27T04:23:45.903Z,101321.31
2022-10-27T04:26:13.009Z,101183.72
2022-10-27T04:28:44.076Z,101264.16
2022-10-27T04:31:18.556Z,101264.19
2022-10-27T04:33:46.219Z,101249.22
2022-10-27T04:36:17.297Z,101271.47
2022-10-27T04:38:44.744Z,101327.72
2022-10-27T04:41:11.600Z,101359.19
2022-10-27T04:43:38.509Z,101225.44
2022-10-27T04:46:10.547Z,101367.97
2022-10-27T04:48:40.390Z,101352.75
2022-10-27T04:51:11.693Z,101311.09
2022-10-27T04:53:41.437Z,101374.88
2022-10-27T04:56:11.336Z,101343.03
2022-10-27T04:58:45.412Z,101346.38
2022-10-27T05:01:15.704Z,101317.31
2022-10-27T05:03:48.074Z,101284.09
2022-10-27T05:06:21.628Z,101310.88
2022-10-27T05:08:48.509Z,101361.47
2022-10-27T05:11:18.063Z,101312.69
2022-10-27T05:13:47.023Z,101308.28
2022-10-27T05:16:15.828Z,101294.25
2022-10-27T05:19:14.634Z,101377.66
2022-10-27T05:21:41.384Z,101389.91
2022-10-27T05:24:08.233Z,101252.94
2022-10-27T05:26:37.869Z,101273.75
2022-10-27T05:29:04.935Z,101284.28
2022-10-27T05:31:31.710Z,101404.97
2022-10-27T05:34:14.167Z,101290.81
2022-10-27T05:36:43.764Z,101301.53
2022-10-27T05:39:13.478Z,101277.91
2022-10-27T05:41:40.281Z,101214.19
2022-10-27T05:44:06.955Z,101318.81
2022-10-27T05:46:36.065Z,101330.44
2022-10-27T05:49:08.514Z,101340.97
2022-10-27T05:51:37.577Z,101420.03
2022-10-27T05:54:06.413Z,101420.22
2022-10-27T05:56:35.391Z,101310.31
2022-10-27T06:01:36.500Z,101369.00
2022-10-27T06:04:03.492Z,101435.34
2022-10-27T06:06:30.296Z,101429.13
2022-10-27T06:08:59.211Z,101363.63
2022-10-27T06:11:26.074Z,101432.72
2022-10-27T06:13:58.484Z,101321.75
2022-10-27T06:16:29.714Z,101357.47
2022-10-27T06:18:57.080Z,101285.69
2022-10-27T06:21:26.245Z,101321.31
2022-10-27T06:23:52.998Z,101403.59
2022-10-27T06:26:24.390Z,101359.28
2022-10-27T06:28:53.740Z,101380.25
2022-10-27T06:31:20.483Z,101419.84
2022-10-27T06:33:47.573Z,101456.66
2022-10-27T06:36:16.645Z,101463.84
2022-10-27T06:38:44.487Z,101333.72
2022-10-27T06:41:12.517Z,101461.63
2022-10-27T06:43:41.357Z,101341.88
2022-10-27T06:46:12.754Z,101392.56
2022-10-27T06:48:39.457Z,101382.88
2022-10-27T06:51:06.195Z,101413.16
2022-10-27T06:53:38.194Z,101386.59
2022-10-27T06:56:07.226Z,101376.88
2022-10-27T06:58:39.444Z,101335.03
2022-10-27T07:01:09.010Z,101327.94
2022-10-27T07:03:38.172Z,101443.28
2022-10-27T07:06:09.899Z,101357.41
2022-10-27T07:08:38.737Z,101448.94
2022-10-27T07:11:05.554Z,101415.31
2022-10-27T07:13:37.446Z,101379.84
2022-10-27T07:16:04.355Z,101502.38
2022-10-27T07:18:37.608Z,101453.50
2022-10-27T07:21:05.335Z,101418.00
2022-10-27T07:23:32.240Z,101235.28
2022-10-27T07:26:03.598Z,101508.84
2022-10-27T07:28:32.920Z,101409.78
2022-10-27T07:31:02.988Z,101476.47
2022-10-27T07:33:29.771Z,101493.75
2022-10-27T07:35:56.529Z,101457.59
2022-10-27T07:38:23.293Z,101533.69
2022-10-27T07:40:54.906Z,101406.50
2022-10-27T07:43:24.129Z,101405.75
2022-10-27T07:45:55.943Z,101425.56
2022-10-27T07:48:25.009Z,101465.16
2022-10-27T07:50:55.250Z,101477.75
2022-10-27T07:53:22.007Z,101446.50
2022-10-27T07:55:52.486Z,101437.84
2022-10-27T07:58:19.283Z,101467.22
2022-10-27T08:00:48.305Z,101473.34
2022-10-27T08:03:26.369Z,101550.00
2022-10-27T08:05:53.510Z,101492.28
2022-10-27T08:08:23.515Z,101511.44
2022-10-27T08:10:55.046Z,101537.28
2022-10-27T08:13:24.012Z,101532.47
2022-10-27T08:18:32.824Z,101453.53
2022-10-27T08:20:59.644Z,101455.94
2022-10-27T08:23:26.359Z,101479.66
2022-10-27T08:25:53.216Z,101483.66
2022-10-27T08:28:22.320Z,101552.19
2022-10-27T08:30:52.534Z,101540.88
2022-10-27T08:33:25.093Z,101589.13
2022-10-27T08:35:52.146Z,101576.41
2022-10-27T08:38:25.805Z,101576.78
2022-10-27T08:41:24.142Z,101429.69
2022-10-27T08:44:12.501Z,101567.44
2022-10-27T08:46:47.574Z,101570.44
2022-10-27T08:49:51.544Z,101529.88
2022-10-27T08:52:34.134Z,101572.75
2022-10-27T08:55:13.231Z,101576.59
2022-10-27T08:57:59.757Z,101573.50
2022-10-27T09:00:28.487Z,101532.25
2022-10-27T09:03:06.385Z,101487.44
2022-10-27T09:06:25.026Z,101556.06
2022-10-27T09:09:07.356Z,101565.50
2022-10-27T09:11:44.200Z,101573.31
2022-10-27T09:14:32.920Z,101569.28
2022-10-27T09:17:12.874Z,101488.81
2022-10-27T09:19:52.334Z,101576.81
2022-10-27T09:22:20.715Z,101582.38
2022-10-27T09:25:00.442Z,101453.19
2022-10-27T09:27:29.541Z,101524.78
2022-10-27T09:30:03.622Z,101467.38
2022-10-27T09:32:33.209Z,101467.72
2022-10-27T09:35:02.279Z,101548.81
2022-10-27T09:37:31.478Z,101591.00
2022-10-27T09:40:00.833Z,101584.75
2022-10-27T09:42:28.605Z,101565.34
2022-10-27T09:44:58.060Z,101523.06
2022-10-27T09:47:37.869Z,101586.50
2022-10-27T09:50:07.578Z,101581.97
2022-10-27T09:52:43.256Z,101580.94
2022-10-27T09:55:12.249Z,101585.56
2022-10-27T09:57:44.710Z,101584.88
2022-10-27T10:00:17.458Z,101578.75
2022-10-27T10:05:40.060Z,101478.84
2022-10-27T10:08:27.676Z,101583.69
2022-10-27T10:10:59.324Z,101566.03
2022-10-27T10:13:26.498Z,101584.94
2022-10-27T10:16:13.887Z,101581.69
2022-10-27T10:18:41.903Z,101494.84
2022-10-27T10:21:12.870Z,101583.59
2022-10-27T10:23:49.124Z,101584.53
2022-10-27T10:26:18.800Z,101505.53
2022-10-27T10:28:46.867Z,101542.88
2022-10-27T10:31:16.476Z,101586.50
2022-10-27T10:33:46.701Z,101544.06
2022-10-27T10:36:25.219Z,101583.16
2022-10-27T10:39:00.629Z,101465.19
2022-10-27T10:41:30.325Z,101441.25
2022-10-27T10:44:26.869Z,101500.91
2022-10-27T10:46:55.066Z,101502.22
2022-10-27T10:49:42.829Z,101572.41
2022-10-27T10:52:19.037Z,101444.84
2022-10-27T10:54:46.139Z,101589.63
2022-10-27T10:57:36.743Z,101577.75
2022-10-27T11:00:05.476Z,101459.31
2022-10-27T11:02:35.531Z,101536.97
2022-10-27T11:05:20.266Z,101530.00
2022-10-27T11:07:48.436Z,101507.88
2022-10-27T11:10:25.141Z,101575.75
2022-10-27T11:12:55.990Z,101515.13
2022-10-27T11:15:29.239Z,101576.47
2022-10-27T11:18:20.933Z,101572.75
2022-10-27T11:20:54.185Z,101477.09
2022-10-27T11:23:25.588Z,101575.66
2022-10-27T11:25:53.290Z,101575.06
2022-10-27T11:28:27.886Z,101579.66
2022-10-27T11:31:18.635Z,101502.75
2022-10-27T11:33:54.503Z,101500.28
2022-10-27T11:36:25.156Z,101570.41
2022-10-27T11:39:01.364Z,101569.59
2022-10-27T11:41:38.698Z,101496.97
2022-10-27T11:44:29.189Z,101571.34
2022-10-27T11:47:13.677Z,101559.78
2022-10-27T11:49:53.961Z,101501.34
2022-10-27T11:52:39.668Z,101563.47
2022-10-27T11:55:08.970Z,101530.84
2022-10-27T11:57:44.689Z,101555.63
2022-10-27T12:00:26.811Z,101545.06
2022-10-27T12:03:21.714Z,101554.06
2022-10-27T12:05:57.799Z,101507.31
2022-10-27T12:08:30.707Z,101551.78
2022-10-27T12:11:13.170Z,101496.13
2022-10-27T12:13:55.008Z,101545.94
2022-10-27T12:16:48.754Z,101546.03
2022-10-27T12:19:36.086Z,101536.41
2022-10-27T12:22:15.399Z,101539.03
2022-10-27T12:25:00.438Z,101534.66
2022-10-27T12:27:35.343Z,101376.13
2022-10-27T12:30:13.764Z,101476.19
2022-10-27T12:33:00.745Z,101521.44
2022-10-27T12:35:33.221Z,101475.16
2022-10-27T12:38:17.744Z,101528.16
2022-10-27T12:41:09.221Z,101529.75
2022-10-27T12:43:49.544Z,101484.50
2022-10-27T12:46:47.217Z,101531.63
2022-10-27T12:49:32.152Z,101364.09
2022-10-27T12:52:16.341Z,101522.25
2022-10-27T12:55:07.442Z,101506.31
2022-10-27T12:57:55.130Z,101534.41
2022-10-27T13:03:20.471Z,101539.38
2022-10-27T13:06:10.394Z,101539.38
2022-10-27T13:09:04.419Z,101538.72
2022-10-27T13:11:34.191Z,101529.59
2022-10-27T13:14:22.121Z,101534.16
2022-10-27T13:17:23.105Z,101459.13
2022-10-27T13:20:08.253Z,101431.88
2022-10-27T13:22:47.567Z,101399.16
2022-10-27T13:25:17.321Z,101521.31
2022-10-27T13:27:56.513Z,101529.69
2022-10-27T13:30:30.173Z,101542.31
2022-10-27T13:32:57.196Z,101423.47
2022-10-27T13:35:26.605Z,101534.34
2022-10-27T13:37:56.527Z,101539.63
2022-10-27T13:40:41.884Z,101442.84
2022-10-27T13:43:23.854Z,101541.19
2022-10-27T13:45:59.217Z,101370.22
2022-10-27T13:48:25.957Z,101496.88
2022-10-27T13:50:56.623Z,101537.72
2022-10-27T13:53:28.844Z,101543.81
2022-10-27T13:56:30.902Z,101518.13
2022-10-27T13:59:05.015Z,101515.41
2022-10-27T14:01:34.792Z,101541.94
2022-10-27T14:04:24.505Z,101489.44
2022-10-27T14:07:01.940Z,101529.66
2022-10-27T14:09:36.885Z,101542.88
2022-10-27T14:12:17.576Z,101456.84
2022-10-27T14:14:44.577Z,101540.97
2022-10-27T14:17:20.091Z,101521.19
2022-10-27T14:19:59.363Z,101544.81
2022-10-27T14:22:36.745Z,101523.22
2022-10-27T14:25:26.890Z,101406.03
2022-10-27T14:28:22.381Z,101551.44
2022-10-27T14:31:09.362Z,101525.16
2022-10-27T14:33:36.254Z,101497.88
2022-10-27T14:36:15.774Z,101551.13
2022-10-27T14:38:49.515Z,101484.34
2022-10-27T14:41:21.511Z,101499.41
2022-10-27T14:43:55.195Z,101453.34
2022-10-27T14:46:29.331Z,101410.03
2022-10-27T14:49:04.855Z,101439.13
2022-10-27T14:51:34.905Z,101396.56
2022-10-27T14:54:02.325Z,101468.41
2022-10-27T14:56:31.181Z,101455.09
2022-10-27T14:59:00.028Z,101498.44
2022-10-27T15:01:39.106Z,101507.94
2022-10-27T15:04:15.035Z,101558.38
2022-10-27T15:06:45.304Z,101557.50
2022-10-27T15:09:51.818Z,101559.22
2022-10-27T15:12:30.277Z,101561.75
2022-10-27T15:14:58.414Z,101479.19
2022-10-27T15:17:45.927Z,101529.50
2022-10-27T15:20:19.519Z,101508.88
2022-10-27T15:22:51.919Z,101399.72
2022-10-27T15:25:19.188Z,101551.63
2022-10-27T15:27:48.162Z,101453.00
2022-10-27T15:30:20.077Z,101436.22
2022-10-27T15:32:52.452Z,101473.50
2022-10-27T15:35:33.905Z,101556.00
2022-10-27T15:38:04.933Z,101553.38
2022-10-27T15:40:41.102Z,101555.97
2022-10-27T15:43:23.874Z,101561.13
2022-10-27T15:45:51.630Z,101410.97
2022-10-27T15:48:27.177Z,101555.84
2022-10-27T15:51:10.503Z,101434.03
2022-10-27T15:53:51.833Z,101492.47
2022-10-27T15:56:35.205Z,101563.38
2022-10-27T15:59:23.469Z,101514.47
2022-10-27T16:01:56.599Z,101548.75
2022-10-27T16:04:45.115Z,101567.41
2022-10-27T16:07:22.047Z,101571.00
2022-10-27T16:09:53.445Z,101571.09
2022-10-27T16:12:30.456Z,101573.78
2022-10-27T16:15:03.655Z,101569.53
2022-10-27T16:17:42.387Z,101329.81
2022-10-27T16:20:38.725Z,101459.84
2022-10-27T16:23:11.512Z,101448.56
2022-10-27T16:25:39.870Z,101568.16
2022-10-27T16:28:39.724Z,101346.75
2022-10-27T16:31:17.405Z,101466.69
2022-10-27T16:33:47.683Z,101405.63
2022-10-27T16:36:16.602Z,101567.25
2022-10-27T16:38:46.504Z,101468.44
2022-10-27T16:41:18.756Z,101499.78
2022-10-27T16:43:45.843Z,101415.34
2022-10-27T16:46:13.193Z,101579.81
2022-10-27T16:48:42.352Z,101605.97
2022-10-27T16:51:19.473Z,101525.28
2022-10-27T16:53:51.912Z,101480.16
2022-10-27T16:56:21.701Z,101582.31
2022-10-27T16:58:54.187Z,101406.09
2022-10-27T17:01:23.364Z,101392.22
2022-10-27T17:03:52.303Z,101412.19
2022-10-27T17:06:25.612Z,101501.97
2022-10-27T17:09:07.709Z,101377.13
2022-10-27T17:11:39.197Z,101346.03
2022-10-27T17:14:07.322Z,101586.78
2022-10-27T17:16:34.419Z,101371.13
2022-10-27T17:19:01.440Z,101409.69
2022-10-27T17:21:28.411Z,101359.78
2022-10-27T17:23:55.153Z,101449.53
2022-10-27T17:26:26.604Z,101439.13
2022-10-27T17:28:55.552Z,101592.69
2022-10-27T17:31:35.003Z,101485.66
2022-10-27T17:34:04.389Z,101603.19
2022-10-27T17:36:36.296Z,101435.16
2022-10-27T17:39:05.815Z,101381.34
2022-10-27T17:41:35.349Z,101541.53
2022-10-27T17:44:04.752Z,101366.88
2022-10-27T17:46:31.503Z,101550.84
2022-10-27T17:51:38.485Z,101609.19
2022-10-27T17:54:05.479Z,101185.97
2022-10-27T17:56:41.348Z,101489.03
2022-10-27T17:59:14.005Z,101304.44
2022-10-27T18:04:46.787Z,101413.56
2022-10-27T18:07:18.934Z,101566.25
2022-10-27T18:09:45.826Z,101233.91
2022-10-27T18:12:12.806Z,101514.78
2022-10-27T18:14:39.838Z,101614.44
2022-10-27T18:17:07.816Z,101301.69
2022-10-27T18:19:37.082Z,101466.00
2022-10-27T18:22:03.751Z,101423.50
2022-10-27T18:24:31.318Z,101307.94
2022-10-27T18:26:58.119Z,101606.38
2022-10-27T18:29:26.614Z,101608.75
2022-10-27T18:31:53.627Z,101463.94
2022-10-27T18:34:20.613Z,101479.06
2022-10-27T18:36:47.552Z,101364.88
2022-10-27T18:39:19.966Z,101508.06
2022-10-27T18:41:49.016Z,101559.84
2022-10-27T18:44:21.130Z,101608.84
2022-10-27T18:46:48.010Z,101357.53
2022-10-27T18:49:25.562Z,101462.19
2022-10-27T18:52:00.260Z,101476.41
2022-10-27T18:54:29.280Z,101551.91
2022-10-27T18:56:56.067Z,101620.09
2022-10-27T18:59:22.811Z,101484.97
2022-10-27T19:01:50.193Z,101606.28
2022-10-27T19:04:16.990Z,101481.53
2022-10-27T19:06:43.794Z,101619.22
2022-10-27T19:09:11.102Z,101455.75
2022-10-27T19:11:40.027Z,101454.91
2022-10-27T19:14:09.015Z,101399.91
2022-10-27T19:16:37.870Z,101617.47
2022-10-27T19:19:09.458Z,101632.25
2022-10-27T19:21:36.317Z,101432.56
2022-10-27T19:24:05.259Z,101530.94
2022-10-27T19:26:33.970Z,101546.03
2022-10-27T19:29:03.477Z,101431.38
2022-10-27T19:31:33.329Z,101625.13
2022-10-27T19:34:00.329Z,101506.09
2022-10-27T19:36:30.180Z,101444.72
2022-10-27T19:39:02.256Z,101635.59
2022-10-27T19:41:33.005Z,101320.22
2022-10-27T19:44:00.339Z,101580.94
2022-10-27T19:46:31.208Z,101529.69
2022-10-27T19:49:02.735Z,101589.75
2022-10-27T19:51:34.935Z,101567.34
2022-10-27T19:54:11.059Z,101349.56
2022-10-27T19:56:47.065Z,101648.97
2022-10-27T19:59:21.118Z,101485.44
2022-10-27T20:01:51.397Z,101604.63
2022-10-27T20:04:19.668Z,101549.22
2022-10-27T20:06:46.595Z,101440.28
2022-10-27T20:09:15.156Z,101659.63
2022-10-27T20:11:45.027Z,101594.88
2022-10-27T20:14:13.128Z,101645.56
2022-10-27T20:16:43.418Z,101582.38
2022-10-27T20:19:15.155Z,101323.97
2022-10-27T20:21:44.409Z,101398.53
2022-10-27T20:24:14.630Z,101644.84
2022-10-27T20:26:48.749Z,101441.34
2022-10-27T20:29:16.629Z,101645.81
2022-10-27T20:31:46.221Z,101560.38
2022-10-27T20:34:13.636Z,101509.66
2022-10-27T20:36:43.138Z,101536.56
2022-10-27T20:39:11.184Z,101646.66
2022-10-27T20:41:40.274Z,101619.72
2022-10-27T20:44:07.468Z,101646.66
2022-10-27T20:46:36.542Z,101413.81
2022-10-27T20:49:05.606Z,101440.41
2022-10-27T20:51:33.099Z,101414.66
2022-10-27T20:54:13.290Z,101647.91
2022-10-27T20:56:42.579Z,101659.19
2022-10-27T20:59:09.370Z,101510.94
2022-10-27T21:01:37.953Z,101650.50
2022-10-27T21:04:04.786Z,101648.81
2022-10-27T21:06:38.035Z,101548.56
2022-10-27T21:09:08.800Z,101658.38
2022-10-27T21:11:35.626Z,101484.78
2022-10-27T21:14:06.081Z,101661.00
2022-10-27T21:16:33.436Z,101473.72
2022-10-27T21:19:02.257Z,101548.50
2022-10-27T21:21:33.302Z,101659.31
2022-10-27T21:24:02.706Z,101437.97
2022-10-27T21:26:33.130Z,101549.47
2022-10-27T21:29:00.191Z,101348.66
2022-10-27T21:31:29.042Z,101647.81
2022-10-27T21:33:56.765Z,101377.56
2022-10-27T21:36:28.351Z,101542.31
2022-10-27T21:38:57.550Z,101646.25
2022-10-27T21:41:26.584Z,101457.50
2022-10-27T21:43:56.567Z,101487.06
2022-10-27T21:46:25.893Z,101649.41
2022-10-27T21:48:58.986Z,101648.56
2022-10-27T21:51:26.367Z,101560.53
2022-10-27T21:54:01.352Z,101420.09
2022-10-27T21:56:35.259Z,101522.72
2022-10-27T21:59:06.502Z,101597.50
2022-10-27T22:01:35.906Z,101585.00
2022-10-27T22:04:05.737Z,101656.47
2022-10-27T22:06:33.659Z,101601.25
2022-10-27T22:09:00.989Z,101680.03
2022-10-27T22:11:34.173Z,101629.00
2022-10-27T22:14:03.997Z,101656.50
2022-10-27T22:16:37.039Z,101650.34
2022-10-27T22:19:05.249Z,101669.66
2022-10-27T22:21:37.109Z,101485.00
2022-10-27T22:24:04.403Z,101664.53
2022-10-27T22:26:31.407Z,101586.72
2022-10-27T22:29:03.528Z,101452.88
2022-10-27T22:31:31.518Z,101666.00
2022-10-27T22:34:02.309Z,101665.97
2022-10-27T22:36:29.698Z,101671.13
2022-10-27T22:39:00.437Z,101666.75
2022-10-27T22:41:27.840Z,101690.19
2022-10-27T22:43:56.393Z,101551.94
2022-10-27T22:46:25.222Z,101541.78
2022-10-27T22:48:52.120Z,101546.28
2022-10-27T22:51:27.645Z,101491.34
2022-10-27T22:54:00.192Z,101662.81
2022-10-27T22:56:31.739Z,101411.03
2022-10-27T22:59:00.216Z,101658.47
2022-10-27T23:01:32.090Z,101660.09
2022-10-27T23:04:00.774Z,101524.31
2022-10-27T23:06:33.310Z,101523.91
2022-10-27T23:09:20.530Z,101614.72
2022-10-27T23:11:47.262Z,101526.72
2022-10-27T23:14:15.611Z,101428.91
2022-10-27T23:16:43.034Z,101658.22
2022-10-27T23:19:09.843Z,101490.72
2022-10-27T23:21:36.671Z,101661.69
2022-10-27T23:24:04.079Z,101498.81
2022-10-27T23:26:35.480Z,101672.94
2022-10-27T23:29:04.997Z,101667.69
2022-10-27T23:31:34.809Z,101564.63
2022-10-27T23:34:03.105Z,101664.25
2022-10-27T23:36:30.905Z,101666.84
2022-10-27T23:39:00.448Z,101536.94
2022-10-27T23:41:27.349Z,101501.50
2022-10-27T23:43:56.075Z,101385.69
2022-10-27T23:46:30.023Z,101673.72
2022-10-27T23:48:57.701Z,101670.16
2022-10-27T23:51:26.665Z,101485.13
2022-10-27T23:53:55.785Z,101499.94
2022-10-27T23:56:22.940Z,101676.19
2022-10-27T23:58:50.225Z,101695.38
